Thunder radar more information blitzortung!


avis per Pluja more information rain snow radar


Visita la nostra xarxa de llocs de meteo:

Template documentation
and downloads

And another site



Rain From: 18-11-2018 11:00 Until: 20:59 warning for: Rain Level: Yellow info button

Pagina Historial Weather Underground text

Diari Resum February 4, 2018 Unitats:  Tant    Imperial   Mètric
« Previous Dia
SegĂźent Dia »
Diari Setmana Mensual Anual Personalitzada
  Maxima: Minima: Media:
Temperatura: TemperatureF °F /  -17.8 °C 39.2 °F /  4 °C 41.6 °F /  5.3 °C
Punt de rosada: DewpointF °F /  -17.8 °C 30.2 °F /  -1 °C 34.1 °F /  1.2 °C
Humitat: Humidity % 61 % 75 %
Wind Speed: WindSpeedMPH mph /  0 km/h - 3.1 mph /  5 km/h
RĂ fegues de vent: WindSpeedGustMPH mph /  0 km/h - -
Vent:- - ENE
Pression baro: PressureIn in /  0 hPa 29.74 in /  1007 hPa -
Precipitacions: 1.04 in /  26.42 mm    
Historical Graphs
 
 
Dades de taula per February 4, 2018
Temps Temperatura Punt de rosada Pression baro Vent Wind Speed RĂ fegues de vent Humitat Rainfall Rate (Hourly)
TemperatureF °F /  -17.8 °C DewpointF °F /  -17.8 °C PressureIn in /  0 hPa Calm     Humidity % HourlyPrecipIn in /  0 mm
00:04 44.2 °F /  6.8 °C 31.6 °F /  -0.2 °C 29.83 in /  1010 hPa West 2.3 mph /  3.7 km/h 2.3 mph /  3.7 km/h 61 % 0.00 in /  0 mm
00:09 44.1 °F /  6.7 °C 31.5 °F /  -0.3 °C 29.83 in /  1010 hPa WSW 1.4 mph /  2.3 km/h 1.4 mph /  2.3 km/h 61 % 0.00 in /  0 mm
00:14 44.2 °F /  6.8 °C 31.6 °F /  -0.2 °C 29.83 in /  1010 hPa WSW 3.8 mph /  6.1 km/h 3.8 mph /  6.1 km/h 61 % 0.00 in /  0 mm
00:19 44.1 °F /  6.7 °C 31.5 °F /  -0.3 °C 29.83 in /  1010 hPa WSW 2.3 mph /  3.7 km/h 2.3 mph /  3.7 km/h 61 % 0.00 in /  0 mm
00:24 43.7 °F /  6.5 °C 31.1 °F /  -0.5 °C 29.83 in /  1010 hPa SW 1.2 mph /  1.9 km/h   61 % 0.00 in /  0 mm
00:29 43.7 °F /  6.5 °C 31.1 °F /  -0.5 °C 29.83 in /  1010 hPa Calm     61 % 0.00 in /  0 mm
00:34 43.5 °F /  6.4 °C 31.0 °F /  -0.6 °C 29.83 in /  1010 hPa WNW 1.4 mph /  2.3 km/h 1.4 mph /  2.3 km/h 61 % 0.00 in /  0 mm
00:39 43.5 °F /  6.4 °C 31.0 °F /  -0.6 °C 29.83 in /  1010 hPa WNW 3.5 mph /  5.6 km/h 3.5 mph /  5.6 km/h 61 % 0.00 in /  0 mm
00:44 43.5 °F /  6.4 °C 31.4 °F /  -0.3 °C 29.83 in /  1010 hPa WNW 2.6 mph /  4.2 km/h 2.6 mph /  4.2 km/h 62 % 0.00 in /  0 mm
00:49 43.2 °F /  6.2 °C 31.0 °F /  -0.6 °C 29.83 in /  1010 hPa SW 2.3 mph /  3.7 km/h 2.3 mph /  3.7 km/h 62 % 0.00 in /  0 mm
00:54 43.2 °F /  6.2 °C 31.0 °F /  -0.6 °C 29.83 in /  1010 hPa WNW 1.2 mph /  1.9 km/h   62 % 0.00 in /  0 mm
00:59 42.8 °F /  6 °C 30.7 °F /  -0.7 °C 29.85 in /  1010.7 hPa North 2.9 mph /  4.7 km/h 2.9 mph /  4.7 km/h 62 % 0.00 in /  0 mm
01:04 42.6 °F /  5.9 °C 30.9 °F /  -0.6 °C 29.85 in /  1010.7 hPa NNE 2.3 mph /  3.7 km/h 2.3 mph /  3.7 km/h 63 % 0.00 in /  0 mm
01:09 42.4 °F /  5.8 °C 30.7 °F /  -0.7 °C 29.85 in /  1010.7 hPa North 1.2 mph /  1.9 km/h 1.2 mph /  1.9 km/h 63 % 0.00 in /  0 mm
01:14 42.3 °F /  5.7 °C 30.6 °F /  -0.8 °C 29.83 in /  1010 hPa WNW 1.2 mph /  1.9 km/h 1.2 mph /  1.9 km/h 63 % 0.00 in /  0 mm
01:19 42.1 °F /  5.6 °C 30.4 °F /  -0.9 °C 29.83 in /  1010 hPa South 1.4 mph /  2.3 km/h   63 % 0.00 in /  0 mm
01:24 42.1 °F /  5.6 °C 30.4 °F /  -0.9 °C 29.83 in /  1010 hPa NNW 1.2 mph /  1.9 km/h   63 % 0.00 in /  0 mm
01:29 41.9 °F /  5.5 °C 30.2 °F /  -1 °C 29.83 in /  1010 hPa NNE 1.2 mph /  1.9 km/h 1.4 mph /  2.3 km/h 63 % 0.00 in /  0 mm
01:34 41.7 °F /  5.4 °C 30.4 °F /  -0.9 °C 29.83 in /  1010 hPa WNW 0.9 mph /  1.4 km/h   64 % 0.00 in /  0 mm
01:39 41.9 °F /  5.5 °C 30.6 °F /  -0.8 °C 29.83 in /  1010 hPa NNE 2.3 mph /  3.7 km/h 2.3 mph /  3.7 km/h 64 % 0.00 in /  0 mm
01:44 42.1 °F /  5.6 °C 30.8 °F /  -0.7 °C 29.83 in /  1010 hPa WNW 3.5 mph /  5.6 km/h 3.5 mph /  5.6 km/h 64 % 0.00 in /  0 mm
01:49 42.1 °F /  5.6 °C 30.8 °F /  -0.7 °C 29.83 in /  1010 hPa NNE 2.4 mph /  3.9 km/h 2.4 mph /  3.9 km/h 64 % 0.00 in /  0 mm
01:54 42.1 °F /  5.6 °C 30.8 °F /  -0.7 °C 29.83 in /  1010 hPa NNE 2.2 mph /  3.5 km/h   64 % 0.00 in /  0 mm
01:59 42.1 °F /  5.6 °C 30.8 °F /  -0.7 °C 29.83 in /  1010 hPa NNE 2.3 mph /  3.7 km/h 2.3 mph /  3.7 km/h 64 % 0.00 in /  0 mm
02:04 42.1 °F /  5.6 °C 30.8 °F /  -0.7 °C 29.83 in /  1010 hPa NNE 2.3 mph /  3.7 km/h   64 % 0.00 in /  0 mm
02:09 42.1 °F /  5.6 °C 31.2 °F /  -0.4 °C 29.83 in /  1010 hPa NE 4.0 mph /  6.4 km/h 4.0 mph /  6.4 km/h 65 % 0.00 in /  0 mm
02:14 41.9 °F /  5.5 °C 31.0 °F /  -0.6 °C 29.83 in /  1010 hPa North 2.4 mph /  3.9 km/h 2.4 mph /  3.9 km/h 65 % 0.00 in /  0 mm
02:19 41.9 °F /  5.5 °C 31.0 °F /  -0.6 °C 29.83 in /  1010 hPa NW 2.3 mph /  3.7 km/h 2.3 mph /  3.7 km/h 65 % 0.00 in /  0 mm
02:24 41.9 °F /  5.5 °C 31.0 °F /  -0.6 °C 29.83 in /  1010 hPa NNE 2.3 mph /  3.7 km/h 2.3 mph /  3.7 km/h 65 % 0.00 in /  0 mm
02:29 42.1 °F /  5.6 °C 31.2 °F /  -0.4 °C 29.83 in /  1010 hPa NNE 2.3 mph /  3.7 km/h 2.3 mph /  3.7 km/h 65 % 0.00 in /  0 mm
02:34 42.1 °F /  5.6 °C 31.2 °F /  -0.4 °C 29.83 in /  1010 hPa NNW 3.5 mph /  5.6 km/h 3.5 mph /  5.6 km/h 65 % 0.00 in /  0 mm
02:39 42.3 °F /  5.7 °C 31.3 °F /  -0.4 °C 29.83 in /  1010 hPa NNE 4.6 mph /  7.4 km/h 4.6 mph /  7.4 km/h 65 % 0.00 in /  0 mm
02:44 42.3 °F /  5.7 °C 31.3 °F /  -0.4 °C 29.83 in /  1010 hPa NNE 4.9 mph /  7.9 km/h 4.9 mph /  7.9 km/h 65 % 0.00 in /  0 mm
02:49 42.3 °F /  5.7 °C 31.7 °F /  -0.2 °C 29.83 in /  1010 hPa North 5.8 mph /  9.3 km/h 5.8 mph /  9.3 km/h 66 % 0.00 in /  0 mm
02:54 42.3 °F /  5.7 °C 31.7 °F /  -0.2 °C 29.83 in /  1010 hPa NNE 3.5 mph /  5.6 km/h 3.5 mph /  5.6 km/h 66 % 0.00 in /  0 mm
02:59 42.3 °F /  5.7 °C 31.7 °F /  -0.2 °C 29.83 in /  1010 hPa NNW 1.4 mph /  2.3 km/h   66 % 0.00 in /  0 mm
03:04 42.3 °F /  5.7 °C 31.3 °F /  -0.4 °C 29.83 in /  1010 hPa NNE 2.4 mph /  3.9 km/h 2.4 mph /  3.9 km/h 65 % 0.00 in /  0 mm
03:09 42.1 °F /  5.6 °C 31.5 °F /  -0.3 °C 29.83 in /  1010 hPa NNE 2.3 mph /  3.7 km/h 2.3 mph /  3.7 km/h 66 % 0.00 in /  0 mm
03:14 42.1 °F /  5.6 °C 31.5 °F /  -0.3 °C 29.83 in /  1010 hPa East 2.3 mph /  3.7 km/h 2.3 mph /  3.7 km/h 66 % 0.00 in /  0 mm
03:19 42.3 °F /  5.7 °C 31.7 °F /  -0.2 °C 29.83 in /  1010 hPa North 2.0 mph /  3.2 km/h   66 % 0.00 in /  0 mm
03:24 42.3 °F /  5.7 °C 31.7 °F /  -0.2 °C 29.83 in /  1010 hPa NE 4.6 mph /  7.4 km/h 4.6 mph /  7.4 km/h 66 % 0.00 in /  0 mm
03:29 42.3 °F /  5.7 °C 31.7 °F /  -0.2 °C 29.83 in /  1010 hPa NNE 2.9 mph /  4.7 km/h 2.9 mph /  4.7 km/h 66 % 0.00 in /  0 mm
03:34 42.4 °F /  5.8 °C 31.9 °F /  -0.1 °C 29.83 in /  1010 hPa NNE 4.6 mph /  7.4 km/h 4.6 mph /  7.4 km/h 66 % 0.00 in /  0 mm
03:39 42.3 °F /  5.7 °C 31.7 °F /  -0.2 °C 29.83 in /  1010 hPa NE 2.3 mph /  3.7 km/h 2.3 mph /  3.7 km/h 66 % 0.00 in /  0 mm
03:44 42.3 °F /  5.7 °C 31.7 °F /  -0.2 °C 29.80 in /  1009 hPa NNE 2.0 mph /  3.2 km/h 2.0 mph /  3.2 km/h 66 % 0.00 in /  0 mm
03:49 42.3 °F /  5.7 °C 31.7 °F /  -0.2 °C 29.80 in /  1009 hPa NNW 3.5 mph /  5.6 km/h 3.5 mph /  5.6 km/h 66 % 0.00 in /  0 mm
03:54 42.3 °F /  5.7 °C 31.7 °F /  -0.2 °C 29.80 in /  1009 hPa NE 4.6 mph /  7.4 km/h 4.6 mph /  7.4 km/h 66 % 0.00 in /  0 mm
03:59 42.3 °F /  5.7 °C 31.7 °F /  -0.2 °C 29.83 in /  1010 hPa NNE 4.0 mph /  6.4 km/h 4.0 mph /  6.4 km/h 66 % 0.00 in /  0 mm
04:04 42.3 °F /  5.7 °C 31.7 °F /  -0.2 °C 29.83 in /  1010 hPa NNW 2.3 mph /  3.7 km/h 2.3 mph /  3.7 km/h 66 % 0.00 in /  0 mm
04:09 42.3 °F /  5.7 °C 31.7 °F /  -0.2 °C 29.83 in /  1010 hPa NE 2.3 mph /  3.7 km/h 2.3 mph /  3.7 km/h 66 % 0.00 in /  0 mm
04:14 42.3 °F /  5.7 °C 31.7 °F /  -0.2 °C 29.83 in /  1010 hPa NNE 2.9 mph /  4.7 km/h 2.9 mph /  4.7 km/h 66 % 0.00 in /  0 mm
04:19 42.1 °F /  5.6 °C 31.5 °F /  -0.3 °C 29.83 in /  1010 hPa ENE 2.3 mph /  3.7 km/h 2.3 mph /  3.7 km/h 66 % 0.00 in /  0 mm
04:24 42.3 °F /  5.7 °C 31.7 °F /  -0.2 °C 29.83 in /  1010 hPa NNE 4.6 mph /  7.4 km/h 4.6 mph /  7.4 km/h 66 % 0.00 in /  0 mm
04:29 42.3 °F /  5.7 °C 31.7 °F /  -0.2 °C 29.83 in /  1010 hPa NNE 3.5 mph /  5.6 km/h 3.5 mph /  5.6 km/h 66 % 0.00 in /  0 mm
04:34 42.3 °F /  5.7 °C 31.7 °F /  -0.2 °C 29.83 in /  1010 hPa NE 2.3 mph /  3.7 km/h 2.3 mph /  3.7 km/h 66 % 0.00 in /  0 mm
04:39 42.3 °F /  5.7 °C 31.7 °F /  -0.2 °C 29.83 in /  1010 hPa NE 2.6 mph /  4.2 km/h 2.6 mph /  4.2 km/h 66 % 0.00 in /  0 mm
04:44 42.4 °F /  5.8 °C 31.9 °F /  -0.1 °C 29.83 in /  1010 hPa NNE 5.6 mph /  9 km/h 5.6 mph /  9 km/h 66 % 0.00 in /  0 mm
04:49 42.4 °F /  5.8 °C 31.9 °F /  -0.1 °C 29.83 in /  1010 hPa NNE 5.4 mph /  8.7 km/h 5.4 mph /  8.7 km/h 66 % 0.00 in /  0 mm
04:54 42.3 °F /  5.7 °C 31.7 °F /  -0.2 °C 29.83 in /  1010 hPa ENE 2.3 mph /  3.7 km/h 2.3 mph /  3.7 km/h 66 % 0.00 in /  0 mm
04:59 42.3 °F /  5.7 °C 31.7 °F /  -0.2 °C 29.80 in /  1009 hPa NNE 2.3 mph /  3.7 km/h 2.3 mph /  3.7 km/h 66 % 0.00 in /  0 mm
05:04 42.1 °F /  5.6 °C 31.5 °F /  -0.3 °C 29.80 in /  1009 hPa WSW 2.3 mph /  3.7 km/h 2.3 mph /  3.7 km/h 66 % 0.00 in /  0 mm
05:09 41.9 °F /  5.5 °C 31.4 °F /  -0.3 °C 29.80 in /  1009 hPa SSW 2.0 mph /  3.2 km/h   66 % 0.00 in /  0 mm
05:14 41.9 °F /  5.5 °C 31.4 °F /  -0.3 °C 29.83 in /  1010 hPa West 3.5 mph /  5.6 km/h 3.5 mph /  5.6 km/h 66 % 0.00 in /  0 mm
05:19 41.9 °F /  5.5 °C 31.4 °F /  -0.3 °C 29.83 in /  1010 hPa ENE 3.5 mph /  5.6 km/h 3.5 mph /  5.6 km/h 66 % 0.00 in /  0 mm
05:24 41.9 °F /  5.5 °C 31.4 °F /  -0.3 °C 29.83 in /  1010 hPa NNE 3.5 mph /  5.6 km/h 3.5 mph /  5.6 km/h 66 % 0.00 in /  0 mm
05:29 41.9 °F /  5.5 °C 31.4 °F /  -0.3 °C 29.85 in /  1010.7 hPa West 4.6 mph /  7.4 km/h 4.6 mph /  7.4 km/h 66 % 0.00 in /  0 mm
05:34 41.9 °F /  5.5 °C 31.4 °F /  -0.3 °C 29.85 in /  1010.7 hPa SW 2.3 mph /  3.7 km/h 2.3 mph /  3.7 km/h 66 % 0.00 in /  0 mm
05:39 41.7 °F /  5.4 °C 31.2 °F /  -0.4 °C 29.85 in /  1010.7 hPa SW 2.3 mph /  3.7 km/h 2.3 mph /  3.7 km/h 66 % 0.00 in /  0 mm
05:44 41.5 °F /  5.3 °C 31.4 °F /  -0.3 °C 29.85 in /  1010.7 hPa Calm     67 % 0.00 in /  0 mm
05:49 41.4 °F /  5.2 °C 31.2 °F /  -0.4 °C 29.85 in /  1010.7 hPa SSW 2.3 mph /  3.7 km/h 2.3 mph /  3.7 km/h 67 % 0.00 in /  0 mm
05:54 41.4 °F /  5.2 °C 31.2 °F /  -0.4 °C 29.85 in /  1010.7 hPa SW 2.3 mph /  3.7 km/h 2.3 mph /  3.7 km/h 67 % 0.00 in /  0 mm
05:59 41.4 °F /  5.2 °C 31.2 °F /  -0.4 °C 29.85 in /  1010.7 hPa West 1.2 mph /  1.9 km/h   67 % 0.00 in /  0 mm
06:04 41.4 °F /  5.2 °C 31.2 °F /  -0.4 °C 29.85 in /  1010.7 hPa West 1.2 mph /  1.9 km/h 1.2 mph /  1.9 km/h 67 % 0.00 in /  0 mm
06:09 41.4 °F /  5.2 °C 31.2 °F /  -0.4 °C 29.85 in /  1010.7 hPa Calm     67 % 0.00 in /  0 mm
06:14 41.4 °F /  5.2 °C 31.6 °F /  -0.2 °C 29.85 in /  1010.7 hPa Calm     68 % 0.00 in /  0 mm
06:19 41.2 °F /  5.1 °C 31.4 °F /  -0.3 °C 29.85 in /  1010.7 hPa NNE 2.3 mph /  3.7 km/h 2.3 mph /  3.7 km/h 68 % 0.00 in /  0 mm
06:24 41.2 °F /  5.1 °C 31.4 °F /  -0.3 °C 29.85 in /  1010.7 hPa NE 2.3 mph /  3.7 km/h 2.3 mph /  3.7 km/h 68 % 0.00 in /  0 mm
06:29 41.0 °F /  5 °C 31.2 °F /  -0.4 °C 29.85 in /  1010.7 hPa Calm     68 % 0.00 in /  0 mm
06:34 41.0 °F /  5 °C 31.2 °F /  -0.4 °C 29.85 in /  1010.7 hPa Calm     68 % 0.00 in /  0 mm
06:39 41.0 °F /  5 °C 31.2 °F /  -0.4 °C 29.85 in /  1010.7 hPa Calm     68 % 0.00 in /  0 mm
06:44 41.0 °F /  5 °C 31.2 °F /  -0.4 °C 29.88 in /  1011.7 hPa Calm     68 % 0.00 in /  0 mm
06:49 41.0 °F /  5 °C 31.6 °F /  -0.2 °C 29.88 in /  1011.7 hPa Calm     69 % 0.00 in /  0 mm
06:54 41.0 °F /  5 °C 31.6 °F /  -0.2 °C 29.88 in /  1011.7 hPa Calm     69 % 0.00 in /  0 mm
06:59 41.0 °F /  5 °C 31.6 °F /  -0.2 °C 29.88 in /  1011.7 hPa Calm     69 % 0.00 in /  0 mm
07:04 40.8 °F /  4.9 °C 31.4 °F /  -0.3 °C 29.88 in /  1011.7 hPa Calm     69 % 0.00 in /  0 mm
07:09 40.8 °F /  4.9 °C 31.4 °F /  -0.3 °C 29.88 in /  1011.7 hPa NE 2.3 mph /  3.7 km/h 2.3 mph /  3.7 km/h 69 % 0.00 in /  0 mm
07:14 40.8 °F /  4.9 °C 31.1 °F /  -0.5 °C 29.85 in /  1010.7 hPa NE 2.3 mph /  3.7 km/h 2.3 mph /  3.7 km/h 68 % 0.00 in /  0 mm
07:19 40.6 °F /  4.8 °C 30.9 °F /  -0.6 °C 29.85 in /  1010.7 hPa NW 2.3 mph /  3.7 km/h 2.3 mph /  3.7 km/h 68 % 0.00 in /  0 mm
07:24 40.6 °F /  4.8 °C 30.9 °F /  -0.6 °C 29.85 in /  1010.7 hPa NNW 2.3 mph /  3.7 km/h 2.3 mph /  3.7 km/h 68 % 0.00 in /  0 mm
07:29 40.5 °F /  4.7 °C 30.7 °F /  -0.7 °C 29.88 in /  1011.7 hPa ENE 3.5 mph /  5.6 km/h 3.5 mph /  5.6 km/h 68 % 0.00 in /  0 mm
07:34 40.5 °F /  4.7 °C 30.7 °F /  -0.7 °C 29.88 in /  1011.7 hPa ENE 2.3 mph /  3.7 km/h 2.3 mph /  3.7 km/h 68 % 0.00 in /  0 mm
07:39 40.5 °F /  4.7 °C 30.7 °F /  -0.7 °C 29.88 in /  1011.7 hPa ESE 2.3 mph /  3.7 km/h 2.3 mph /  3.7 km/h 68 % 0.00 in /  0 mm
07:44 40.5 °F /  4.7 °C 30.4 °F /  -0.9 °C 29.88 in /  1011.7 hPa NNE 3.5 mph /  5.6 km/h 3.5 mph /  5.6 km/h 67 % 0.00 in /  0 mm
07:49 40.5 °F /  4.7 °C 30.4 °F /  -0.9 °C 29.88 in /  1011.7 hPa NNW 4.6 mph /  7.4 km/h 4.6 mph /  7.4 km/h 67 % 0.00 in /  0 mm
07:54 40.5 °F /  4.7 °C 30.4 °F /  -0.9 °C 29.88 in /  1011.7 hPa NE 4.6 mph /  7.4 km/h 4.6 mph /  7.4 km/h 67 % 0.00 in /  0 mm
07:59 40.5 °F /  4.7 °C 30.4 °F /  -0.9 °C 29.88 in /  1011.7 hPa NNW 3.5 mph /  5.6 km/h 3.5 mph /  5.6 km/h 67 % 0.00 in /  0 mm
08:04 40.5 °F /  4.7 °C 30.4 °F /  -0.9 °C 29.88 in /  1011.7 hPa NNE 2.6 mph /  4.2 km/h 2.6 mph /  4.2 km/h 67 % 0.00 in /  0 mm
08:09 40.5 °F /  4.7 °C 30.4 °F /  -0.9 °C 29.88 in /  1011.7 hPa ESE 3.5 mph /  5.6 km/h 3.5 mph /  5.6 km/h 67 % 0.00 in /  0 mm
08:14 40.5 °F /  4.7 °C 30.4 °F /  -0.9 °C 29.85 in /  1010.7 hPa West 3.5 mph /  5.6 km/h 3.5 mph /  5.6 km/h 67 % 0.00 in /  0 mm
08:19 40.5 °F /  4.7 °C 30.4 °F /  -0.9 °C 29.85 in /  1010.7 hPa NE 3.5 mph /  5.6 km/h 3.5 mph /  5.6 km/h 67 % 0.00 in /  0 mm
08:24 40.5 °F /  4.7 °C 30.4 °F /  -0.9 °C 29.85 in /  1010.7 hPa SW 3.5 mph /  5.6 km/h 3.5 mph /  5.6 km/h 67 % 0.00 in /  0 mm
08:29 40.6 °F /  4.8 °C 30.5 °F /  -0.8 °C 29.88 in /  1011.7 hPa ENE 3.5 mph /  5.6 km/h 3.5 mph /  5.6 km/h 67 % 0.00 in /  0 mm
08:34 40.6 °F /  4.8 °C 30.5 °F /  -0.8 °C 29.88 in /  1011.7 hPa NNW 4.6 mph /  7.4 km/h 4.6 mph /  7.4 km/h 67 % 0.00 in /  0 mm
08:39 40.8 °F /  4.9 °C 30.7 °F /  -0.7 °C 29.88 in /  1011.7 hPa NE 4.9 mph /  7.9 km/h 4.9 mph /  7.9 km/h 67 % 0.00 in /  0 mm
08:44 40.8 °F /  4.9 °C 30.7 °F /  -0.7 °C 29.88 in /  1011.7 hPa ENE 3.5 mph /  5.6 km/h 3.5 mph /  5.6 km/h 67 % 0.00 in /  0 mm
08:49 41.0 °F /  5 °C 30.9 °F /  -0.6 °C 29.88 in /  1011.7 hPa NNE 2.4 mph /  3.9 km/h 2.4 mph /  3.9 km/h 67 % 0.00 in /  0 mm
08:54 41.2 °F /  5.1 °C 31.0 °F /  -0.6 °C 29.88 in /  1011.7 hPa ESE 4.6 mph /  7.4 km/h 4.6 mph /  7.4 km/h 67 % 0.00 in /  0 mm
08:59 41.4 °F /  5.2 °C 31.2 °F /  -0.4 °C 29.88 in /  1011.7 hPa ENE 3.5 mph /  5.6 km/h 3.5 mph /  5.6 km/h 67 % 0.00 in /  0 mm
09:04 41.4 °F /  5.2 °C 31.2 °F /  -0.4 °C 29.88 in /  1011.7 hPa NNE 3.5 mph /  5.6 km/h 3.5 mph /  5.6 km/h 67 % 0.00 in /  0 mm
09:09 41.5 °F /  5.3 °C 31.4 °F /  -0.3 °C 29.88 in /  1011.7 hPa NNW 4.6 mph /  7.4 km/h 4.6 mph /  7.4 km/h 67 % 0.00 in /  0 mm
09:14 41.5 °F /  5.3 °C 31.4 °F /  -0.3 °C 29.88 in /  1011.7 hPa ENE 3.5 mph /  5.6 km/h 3.5 mph /  5.6 km/h 67 % 0.00 in /  0 mm
09:19 41.9 °F /  5.5 °C 31.7 °F /  -0.2 °C 29.88 in /  1011.7 hPa NNE 2.3 mph /  3.7 km/h 2.3 mph /  3.7 km/h 67 % 0.00 in /  0 mm
09:24 41.9 °F /  5.5 °C 31.7 °F /  -0.2 °C 29.88 in /  1011.7 hPa ENE 4.6 mph /  7.4 km/h 4.6 mph /  7.4 km/h 67 % 0.00 in /  0 mm
09:29 42.1 °F /  5.6 °C 31.9 °F /  -0.1 °C 29.88 in /  1011.7 hPa NE 2.4 mph /  3.9 km/h 2.4 mph /  3.9 km/h 67 % 0.00 in /  0 mm
09:34 42.1 °F /  5.6 °C 31.9 °F /  -0.1 °C 29.88 in /  1011.7 hPa ENE 2.3 mph /  3.7 km/h 2.3 mph /  3.7 km/h 67 % 0.00 in /  0 mm
09:39 42.1 °F /  5.6 °C 31.9 °F /  -0.1 °C 29.88 in /  1011.7 hPa NNE 2.3 mph /  3.7 km/h 2.3 mph /  3.7 km/h 67 % 0.00 in /  0 mm
09:44 42.1 °F /  5.6 °C 31.9 °F /  -0.1 °C 29.88 in /  1011.7 hPa NNW 4.6 mph /  7.4 km/h 4.6 mph /  7.4 km/h 67 % 0.00 in /  0 mm
09:49 42.1 °F /  5.6 °C 31.9 °F /  -0.1 °C 29.88 in /  1011.7 hPa NNE 4.6 mph /  7.4 km/h 4.6 mph /  7.4 km/h 67 % 0.00 in /  0 mm
09:54 42.1 °F /  5.6 °C 31.9 °F /  -0.1 °C 29.88 in /  1011.7 hPa NNE 5.8 mph /  9.3 km/h 5.8 mph /  9.3 km/h 67 % 0.00 in /  0 mm
09:59 42.3 °F /  5.7 °C 32.1 °F /  0.1 °C 29.88 in /  1011.7 hPa NNE 4.6 mph /  7.4 km/h 4.6 mph /  7.4 km/h 67 % 0.00 in /  0 mm
10:04 42.3 °F /  5.7 °C 32.4 °F /  0.2 °C 29.88 in /  1011.7 hPa North 3.5 mph /  5.6 km/h 3.5 mph /  5.6 km/h 68 % 0.00 in /  0 mm
10:09 42.3 °F /  5.7 °C 32.4 °F /  0.2 °C 29.88 in /  1011.7 hPa NNE 2.3 mph /  3.7 km/h 2.3 mph /  3.7 km/h 68 % 0.00 in /  0 mm
10:14 42.3 °F /  5.7 °C 32.4 °F /  0.2 °C 29.88 in /  1011.7 hPa NNE 4.6 mph /  7.4 km/h 4.6 mph /  7.4 km/h 68 % 0.00 in /  0 mm
10:19 42.3 °F /  5.7 °C 32.4 °F /  0.2 °C 29.88 in /  1011.7 hPa ENE 4.6 mph /  7.4 km/h 4.6 mph /  7.4 km/h 68 % 0.00 in /  0 mm
10:24 42.3 °F /  5.7 °C 32.4 °F /  0.2 °C 29.88 in /  1011.7 hPa NE 2.4 mph /  3.9 km/h 2.4 mph /  3.9 km/h 68 % 0.00 in /  0 mm
10:30 42.3 °F /  5.7 °C 32.4 °F /  0.2 °C 29.88 in /  1011.7 hPa NNE 5.8 mph /  9.3 km/h 5.8 mph /  9.3 km/h 68 % 0.00 in /  0 mm
10:34 42.1 °F /  5.6 °C 32.3 °F /  0.2 °C 29.88 in /  1011.7 hPa ENE 4.6 mph /  7.4 km/h 4.6 mph /  7.4 km/h 68 % 0.00 in /  0 mm
10:39 42.1 °F /  5.6 °C 32.3 °F /  0.2 °C 29.88 in /  1011.7 hPa ENE 2.4 mph /  3.9 km/h 2.9 mph /  4.7 km/h 68 % 0.00 in /  0 mm
10:44 42.1 °F /  5.6 °C 32.6 °F /  0.3 °C 29.91 in /  1012.8 hPa ENE 4.9 mph /  7.9 km/h 4.9 mph /  7.9 km/h 69 % 0.00 in /  0 mm
10:49 41.9 °F /  5.5 °C 32.5 °F /  0.3 °C 29.91 in /  1012.8 hPa NNE 5.8 mph /  9.3 km/h 5.8 mph /  9.3 km/h 69 % 0.00 in /  0 mm
10:54 41.9 °F /  5.5 °C 32.5 °F /  0.3 °C 29.91 in /  1012.8 hPa NNE 6.9 mph /  11.1 km/h 6.9 mph /  11.1 km/h 69 % 0.00 in /  0 mm
10:59 41.9 °F /  5.5 °C 32.8 °F /  0.4 °C 29.91 in /  1012.8 hPa NNE 4.6 mph /  7.4 km/h 4.6 mph /  7.4 km/h 70 % 0.00 in /  0 mm
11:04 41.9 °F /  5.5 °C 32.8 °F /  0.4 °C 29.91 in /  1012.8 hPa NNE 6.9 mph /  11.1 km/h 6.9 mph /  11.1 km/h 70 % 0.00 in /  0 mm
11:09 41.9 °F /  5.5 °C 32.8 °F /  0.4 °C 29.91 in /  1012.8 hPa North 4.6 mph /  7.4 km/h 4.6 mph /  7.4 km/h 70 % 0.00 in /  0 mm
11:15 42.1 °F /  5.6 °C 33.0 °F /  0.6 °C 29.88 in /  1011.7 hPa ENE 3.5 mph /  5.6 km/h 3.5 mph /  5.6 km/h 70 % 0.00 in /  0 mm
11:20 42.1 °F /  5.6 °C 33.0 °F /  0.6 °C 29.88 in /  1011.7 hPa NNE 3.8 mph /  6.1 km/h 3.8 mph /  6.1 km/h 70 % 0.00 in /  0 mm
11:25 42.1 °F /  5.6 °C 33.4 °F /  0.8 °C 29.88 in /  1011.7 hPa NNE 5.8 mph /  9.3 km/h 5.8 mph /  9.3 km/h 71 % 0.00 in /  0 mm
11:30 42.1 °F /  5.6 °C 33.4 °F /  0.8 °C 29.88 in /  1011.7 hPa NNE 4.6 mph /  7.4 km/h 4.6 mph /  7.4 km/h 71 % 0.00 in /  0 mm
11:35 42.1 °F /  5.6 °C 33.4 °F /  0.8 °C 29.88 in /  1011.7 hPa NNE 2.6 mph /  4.2 km/h 2.6 mph /  4.2 km/h 71 % 0.00 in /  0 mm
11:40 41.9 °F /  5.5 °C 33.5 °F /  0.8 °C 29.88 in /  1011.7 hPa NE 5.8 mph /  9.3 km/h 5.8 mph /  9.3 km/h 72 % 0.00 in /  0 mm
11:45 42.1 °F /  5.6 °C 33.7 °F /  0.9 °C 29.91 in /  1012.8 hPa NE 3.5 mph /  5.6 km/h 3.5 mph /  5.6 km/h 72 % 0.00 in /  0 mm
11:50 42.1 °F /  5.6 °C 33.7 °F /  0.9 °C 29.91 in /  1012.8 hPa ENE 4.6 mph /  7.4 km/h 4.6 mph /  7.4 km/h 72 % 0.00 in /  0 mm
11:55 41.9 °F /  5.5 °C 33.9 °F /  1.1 °C 29.91 in /  1012.8 hPa NNE 3.5 mph /  5.6 km/h 3.5 mph /  5.6 km/h 73 % 0.00 in /  0 mm
12:00 41.9 °F /  5.5 °C 33.9 °F /  1.1 °C 29.88 in /  1011.7 hPa NE 4.0 mph /  6.4 km/h 4.0 mph /  6.4 km/h 73 % 0.00 in /  0 mm
12:05 42.1 °F /  5.6 °C 34.0 °F /  1.1 °C 29.88 in /  1011.7 hPa NNE 3.5 mph /  5.6 km/h 3.5 mph /  5.6 km/h 73 % 0.00 in /  0 mm
12:10 41.9 °F /  5.5 °C 34.2 °F /  1.2 °C 29.88 in /  1011.7 hPa NNE 2.4 mph /  3.9 km/h 2.4 mph /  3.9 km/h 74 % 0.00 in /  0 mm
12:15 41.9 °F /  5.5 °C 34.2 °F /  1.2 °C 29.88 in /  1011.7 hPa NE 2.6 mph /  4.2 km/h 2.6 mph /  4.2 km/h 74 % 0.00 in /  0 mm
12:20 41.9 °F /  5.5 °C 34.6 °F /  1.4 °C 29.88 in /  1011.7 hPa Calm     75 % 0.00 in /  0 mm
12:25 42.1 °F /  5.6 °C 34.7 °F /  1.5 °C 29.88 in /  1011.7 hPa NNE 2.3 mph /  3.7 km/h 2.3 mph /  3.7 km/h 75 % 0.00 in /  0 mm
12:30 42.1 °F /  5.6 °C 35.1 °F /  1.7 °C 29.91 in /  1012.8 hPa NE 1.2 mph /  1.9 km/h   76 % 0.00 in /  0 mm
12:35 42.1 °F /  5.6 °C 35.1 °F /  1.7 °C 29.91 in /  1012.8 hPa NNE 2.3 mph /  3.7 km/h 2.3 mph /  3.7 km/h 76 % 0.00 in /  0 mm
12:40 42.3 °F /  5.7 °C 35.2 °F /  1.8 °C 29.91 in /  1012.8 hPa NNE 1.2 mph /  1.9 km/h 1.4 mph /  2.3 km/h 76 % 0.00 in /  0 mm
12:45 42.3 °F /  5.7 °C 35.6 °F /  2 °C 29.88 in /  1011.7 hPa ENE 2.3 mph /  3.7 km/h   77 % 0.00 in /  0 mm
12:50 42.3 °F /  5.7 °C 35.6 °F /  2 °C 29.88 in /  1011.7 hPa NNE 2.6 mph /  4.2 km/h 2.6 mph /  4.2 km/h 77 % 0.00 in /  0 mm
12:55 42.3 °F /  5.7 °C 35.6 °F /  2 °C 29.88 in /  1011.7 hPa North 3.1 mph /  5 km/h 3.1 mph /  5 km/h 77 % 0.04 in /  1.02 mm
13:00 42.3 °F /  5.7 °C 35.6 °F /  2 °C 29.88 in /  1011.7 hPa ENE 2.3 mph /  3.7 km/h 2.3 mph /  3.7 km/h 77 % 0.04 in /  1.02 mm
13:05 42.3 °F /  5.7 °C 35.6 °F /  2 °C 29.88 in /  1011.7 hPa NNE 4.6 mph /  7.4 km/h 4.6 mph /  7.4 km/h 77 % 0.04 in /  1.02 mm
13:10 42.3 °F /  5.7 °C 35.6 °F /  2 °C 29.88 in /  1011.7 hPa NNE 4.6 mph /  7.4 km/h 4.6 mph /  7.4 km/h 77 % 0.04 in /  1.02 mm
13:15 42.3 °F /  5.7 °C 35.6 °F /  2 °C 29.88 in /  1011.7 hPa NNE 3.5 mph /  5.6 km/h 3.5 mph /  5.6 km/h 77 % 0.04 in /  1.02 mm
13:20 42.3 °F /  5.7 °C 35.9 °F /  2.2 °C 29.88 in /  1011.7 hPa ENE 3.5 mph /  5.6 km/h 3.5 mph /  5.6 km/h 78 % 0.04 in /  1.02 mm
13:25 42.1 °F /  5.6 °C 35.7 °F /  2.1 °C 29.88 in /  1011.7 hPa NNE 4.6 mph /  7.4 km/h 4.6 mph /  7.4 km/h 78 % 0.04 in /  1.02 mm
13:30 42.1 °F /  5.6 °C 35.7 °F /  2.1 °C 29.85 in /  1010.7 hPa NNE 3.5 mph /  5.6 km/h 3.5 mph /  5.6 km/h 78 % 0.04 in /  1.02 mm
13:35 42.1 °F /  5.6 °C 36.0 °F /  2.2 °C 29.85 in /  1010.7 hPa NNE 2.6 mph /  4.2 km/h 2.6 mph /  4.2 km/h 79 % 0.08 in /  2.03 mm
13:40 42.1 °F /  5.6 °C 36.0 °F /  2.2 °C 29.85 in /  1010.7 hPa ENE 3.5 mph /  5.6 km/h 3.5 mph /  5.6 km/h 79 % 0.08 in /  2.03 mm
13:45 42.3 °F /  5.7 °C 36.2 °F /  2.3 °C 29.88 in /  1011.7 hPa NNE 3.5 mph /  5.6 km/h 3.5 mph /  5.6 km/h 79 % 0.08 in /  2.03 mm
13:50 42.3 °F /  5.7 °C 36.2 °F /  2.3 °C 29.88 in /  1011.7 hPa NNE 3.5 mph /  5.6 km/h 3.5 mph /  5.6 km/h 79 % 0.08 in /  2.03 mm
13:55 42.3 °F /  5.7 °C 36.2 °F /  2.3 °C 29.88 in /  1011.7 hPa NNE 3.6 mph /  5.8 km/h 3.6 mph /  5.8 km/h 79 % 0.04 in /  1.02 mm
14:00 42.4 °F /  5.8 °C 36.7 °F /  2.6 °C 29.88 in /  1011.7 hPa NE 3.5 mph /  5.6 km/h 3.5 mph /  5.6 km/h 80 % 0.04 in /  1.02 mm
14:05 42.4 °F /  5.8 °C 36.7 °F /  2.6 °C 29.88 in /  1011.7 hPa NNE 5.8 mph /  9.3 km/h 5.8 mph /  9.3 km/h 80 % 0.04 in /  1.02 mm
14:10 42.6 °F /  5.9 °C 36.9 °F /  2.7 °C 29.88 in /  1011.7 hPa NNE 3.5 mph /  5.6 km/h 3.6 mph /  5.8 km/h 80 % 0.04 in /  1.02 mm
14:15 42.6 °F /  5.9 °C 36.9 °F /  2.7 °C 29.88 in /  1011.7 hPa NNE 4.6 mph /  7.4 km/h 4.6 mph /  7.4 km/h 80 % 0.04 in /  1.02 mm
14:20 42.8 °F /  6 °C 37.1 °F /  2.8 °C 29.88 in /  1011.7 hPa NNE 3.5 mph /  5.6 km/h 3.5 mph /  5.6 km/h 80 % 0.08 in /  2.03 mm
14:25 42.8 °F /  6 °C 37.1 °F /  2.8 °C 29.88 in /  1011.7 hPa NE 4.6 mph /  7.4 km/h 4.6 mph /  7.4 km/h 80 % 0.08 in /  2.03 mm
14:30 42.8 °F /  6 °C 37.1 °F /  2.8 °C 29.85 in /  1010.7 hPa NNE 4.0 mph /  6.4 km/h 4.0 mph /  6.4 km/h 80 % 0.08 in /  2.03 mm
14:35 42.8 °F /  6 °C 37.1 °F /  2.8 °C 29.85 in /  1010.7 hPa NE 5.9 mph /  9.5 km/h 6.2 mph /  10 km/h 80 % 0.04 in /  1.02 mm
14:40 42.8 °F /  6 °C 37.1 °F /  2.8 °C 29.85 in /  1010.7 hPa NNE 5.6 mph /  9 km/h 5.6 mph /  9 km/h 80 % 0.04 in /  1.02 mm
14:45 42.8 °F /  6 °C 37.1 °F /  2.8 °C 29.88 in /  1011.7 hPa NNE 4.6 mph /  7.4 km/h 4.6 mph /  7.4 km/h 80 % 0.08 in /  2.03 mm
14:50 42.8 °F /  6 °C 37.4 °F /  3 °C 29.88 in /  1011.7 hPa NNE 3.5 mph /  5.6 km/h 3.5 mph /  5.6 km/h 81 % 0.08 in /  2.03 mm
14:55 42.8 °F /  6 °C 37.4 °F /  3 °C 29.88 in /  1011.7 hPa NNE 3.5 mph /  5.6 km/h 3.5 mph /  5.6 km/h 81 % 0.08 in /  2.03 mm
15:00 43.0 °F /  6.1 °C 37.5 °F /  3.1 °C 29.83 in /  1010 hPa ENE 3.5 mph /  5.6 km/h 3.5 mph /  5.6 km/h 81 % 0.08 in /  2.03 mm
15:05 43.0 °F /  6.1 °C 37.5 °F /  3.1 °C 29.83 in /  1010 hPa NNE 4.6 mph /  7.4 km/h 4.6 mph /  7.4 km/h 81 % 0.08 in /  2.03 mm
15:10 43.0 °F /  6.1 °C 37.5 °F /  3.1 °C 29.83 in /  1010 hPa ENE 3.1 mph /  5 km/h 3.1 mph /  5 km/h 81 % 0.08 in /  2.03 mm
15:15 42.8 °F /  6 °C 37.4 °F /  3 °C 29.85 in /  1010.7 hPa NNE 5.8 mph /  9.3 km/h 5.8 mph /  9.3 km/h 81 % 0.12 in /  3.05 mm
15:20 42.8 °F /  6 °C 37.4 °F /  3 °C 29.85 in /  1010.7 hPa East 4.6 mph /  7.4 km/h 4.6 mph /  7.4 km/h 81 % 0.08 in /  2.03 mm
15:25 42.8 °F /  6 °C 37.4 °F /  3 °C 29.85 in /  1010.7 hPa NNE 4.0 mph /  6.4 km/h 4.0 mph /  6.4 km/h 81 % 0.08 in /  2.03 mm
15:30 42.8 °F /  6 °C 37.4 °F /  3 °C 29.85 in /  1010.7 hPa ENE 5.8 mph /  9.3 km/h 5.8 mph /  9.3 km/h 81 % 0.08 in /  2.03 mm
15:35 42.8 °F /  6 °C 37.4 °F /  3 °C 29.85 in /  1010.7 hPa NNE 5.8 mph /  9.3 km/h 5.8 mph /  9.3 km/h 81 % 0.08 in /  2.03 mm
15:40 42.8 °F /  6 °C 37.4 °F /  3 °C 29.85 in /  1010.7 hPa NE 4.7 mph /  7.6 km/h 4.7 mph /  7.6 km/h 81 % 0.08 in /  2.03 mm
15:45 42.8 °F /  6 °C 37.4 °F /  3 °C 29.85 in /  1010.7 hPa ENE 5.9 mph /  9.5 km/h 5.9 mph /  9.5 km/h 81 % 0.04 in /  1.02 mm
15:50 42.8 °F /  6 °C 37.4 °F /  3 °C 29.85 in /  1010.7 hPa NNE 6.2 mph /  10 km/h 6.2 mph /  10 km/h 81 % 0.04 in /  1.02 mm
15:55 42.8 °F /  6 °C 37.4 °F /  3 °C 29.85 in /  1010.7 hPa NNE 5.8 mph /  9.3 km/h 5.8 mph /  9.3 km/h 81 % 0.09 in /  2.29 mm
16:00 42.8 °F /  6 °C 37.4 °F /  3 °C 29.85 in /  1010.7 hPa NNE 5.8 mph /  9.3 km/h 5.8 mph /  9.3 km/h 81 % 0.09 in /  2.29 mm
16:05 42.8 °F /  6 °C 37.7 °F /  3.2 °C 29.85 in /  1010.7 hPa ENE 5.8 mph /  9.3 km/h 5.8 mph /  9.3 km/h 82 % 0.09 in /  2.29 mm
16:10 42.8 °F /  6 °C 37.7 °F /  3.2 °C 29.85 in /  1010.7 hPa ENE 5.4 mph /  8.7 km/h 5.4 mph /  8.7 km/h 82 % 0.13 in /  3.3 mm
16:15 42.6 °F /  5.9 °C 37.5 °F /  3.1 °C 29.88 in /  1011.7 hPa NNE 6.2 mph /  10 km/h 6.2 mph /  10 km/h 82 % 0.09 in /  2.29 mm
16:20 42.6 °F /  5.9 °C 37.5 °F /  3.1 °C 29.88 in /  1011.7 hPa NNE 4.6 mph /  7.4 km/h 4.6 mph /  7.4 km/h 82 % 0.13 in /  3.3 mm
16:25 42.6 °F /  5.9 °C 37.5 °F /  3.1 °C 29.88 in /  1011.7 hPa ENE 4.6 mph /  7.4 km/h 4.6 mph /  7.4 km/h 82 % 0.13 in /  3.3 mm
16:30 42.6 °F /  5.9 °C 37.8 °F /  3.2 °C 29.88 in /  1011.7 hPa ENE 3.5 mph /  5.6 km/h 3.5 mph /  5.6 km/h 83 % 0.17 in /  4.32 mm
16:35 42.6 °F /  5.9 °C 37.8 °F /  3.2 °C 29.88 in /  1011.7 hPa ENE 1.4 mph /  2.3 km/h   83 % 0.21 in /  5.33 mm
16:40 42.6 °F /  5.9 °C 37.8 °F /  3.2 °C 29.88 in /  1011.7 hPa ESE 2.3 mph /  3.7 km/h 2.6 mph /  4.2 km/h 83 % 0.21 in /  5.33 mm
16:45 42.6 °F /  5.9 °C 37.8 °F /  3.2 °C 29.88 in /  1011.7 hPa NNE 4.6 mph /  7.4 km/h 4.6 mph /  7.4 km/h 83 % 0.25 in /  6.35 mm
16:50 42.6 °F /  5.9 °C 37.8 °F /  3.2 °C 29.88 in /  1011.7 hPa ENE 4.6 mph /  7.4 km/h 4.6 mph /  7.4 km/h 83 % 0.25 in /  6.35 mm
16:55 42.6 °F /  5.9 °C 37.8 °F /  3.2 °C 29.88 in /  1011.7 hPa East 4.6 mph /  7.4 km/h 4.6 mph /  7.4 km/h 83 % 0.20 in /  5.08 mm
17:00 42.6 °F /  5.9 °C 37.8 °F /  3.2 °C 29.88 in /  1011.7 hPa East 3.5 mph /  5.6 km/h 3.5 mph /  5.6 km/h 83 % 0.24 in /  6.1 mm
17:05 42.6 °F /  5.9 °C 37.8 °F /  3.2 °C 29.88 in /  1011.7 hPa ESE 3.5 mph /  5.6 km/h 3.5 mph /  5.6 km/h 83 % 0.24 in /  6.1 mm
17:10 42.6 °F /  5.9 °C 37.8 °F /  3.2 °C 29.88 in /  1011.7 hPa ESE 1.2 mph /  1.9 km/h   83 % 0.20 in /  5.08 mm
17:15 42.8 °F /  6 °C 38.3 °F /  3.5 °C 29.88 in /  1011.7 hPa ENE 2.2 mph /  3.5 km/h 2.2 mph /  3.5 km/h 84 % 0.21 in /  5.33 mm
17:20 42.6 °F /  5.9 °C 38.1 °F /  3.4 °C 29.88 in /  1011.7 hPa Calm     84 % 0.21 in /  5.33 mm
17:25 42.6 °F /  5.9 °C 38.1 °F /  3.4 °C 29.88 in /  1011.7 hPa ESE 4.6 mph /  7.4 km/h 4.6 mph /  7.4 km/h 84 % 0.21 in /  5.33 mm
17:30 42.6 °F /  5.9 °C 38.1 °F /  3.4 °C 29.88 in /  1011.7 hPa NNE 2.4 mph /  3.9 km/h 2.4 mph /  3.9 km/h 84 % 0.17 in /  4.32 mm
17:35 42.4 °F /  5.8 °C 37.9 °F /  3.3 °C 29.88 in /  1011.7 hPa ESE 6.0 mph /  9.7 km/h 6.0 mph /  9.7 km/h 84 % 0.13 in /  3.3 mm
17:40 42.4 °F /  5.8 °C 37.6 °F /  3.1 °C 29.88 in /  1011.7 hPa East 3.5 mph /  5.6 km/h 3.5 mph /  5.6 km/h 83 % 0.17 in /  4.32 mm
17:45 42.3 °F /  5.7 °C 37.5 °F /  3.1 °C 29.88 in /  1011.7 hPa ENE 4.6 mph /  7.4 km/h 4.6 mph /  7.4 km/h 83 % 0.13 in /  3.3 mm
17:50 42.1 °F /  5.6 °C 37.3 °F /  2.9 °C 29.88 in /  1011.7 hPa NE 3.6 mph /  5.8 km/h 3.6 mph /  5.8 km/h 83 % 0.17 in /  4.32 mm
17:55 42.1 °F /  5.6 °C 37.6 °F /  3.1 °C 29.88 in /  1011.7 hPa North 3.6 mph /  5.8 km/h 3.6 mph /  5.8 km/h 84 % 0.17 in /  4.32 mm
18:00 41.9 °F /  5.5 °C 37.4 °F /  3 °C 29.88 in /  1011.7 hPa NE 2.4 mph /  3.9 km/h 2.4 mph /  3.9 km/h 84 % 0.13 in /  3.3 mm
18:05 41.9 °F /  5.5 °C 37.4 °F /  3 °C 29.88 in /  1011.7 hPa NNE 2.3 mph /  3.7 km/h 2.3 mph /  3.7 km/h 84 % 0.13 in /  3.3 mm
18:10 41.9 °F /  5.5 °C 37.4 °F /  3 °C 29.88 in /  1011.7 hPa NNE 3.5 mph /  5.6 km/h 3.5 mph /  5.6 km/h 84 % 0.13 in /  3.3 mm
18:15 41.9 °F /  5.5 °C 37.4 °F /  3 °C 29.88 in /  1011.7 hPa ENE 1.2 mph /  1.9 km/h 1.6 mph /  2.6 km/h 84 % 0.08 in /  2.03 mm
18:20 41.7 °F /  5.4 °C 37.2 °F /  2.9 °C 29.88 in /  1011.7 hPa ENE 1.4 mph /  2.3 km/h 1.4 mph /  2.3 km/h 84 % 0.08 in /  2.03 mm
18:25 41.7 °F /  5.4 °C 37.2 °F /  2.9 °C 29.88 in /  1011.7 hPa ENE 2.3 mph /  3.7 km/h 2.3 mph /  3.7 km/h 84 % 0.08 in /  2.03 mm
18:30 41.7 °F /  5.4 °C 37.2 °F /  2.9 °C 29.85 in /  1010.7 hPa NNE 3.6 mph /  5.8 km/h 3.6 mph /  5.8 km/h 84 % 0.08 in /  2.03 mm
18:35 41.7 °F /  5.4 °C 37.2 °F /  2.9 °C 29.85 in /  1010.7 hPa ENE 4.6 mph /  7.4 km/h 4.6 mph /  7.4 km/h 84 % 0.08 in /  2.03 mm
18:40 41.7 °F /  5.4 °C 37.2 °F /  2.9 °C 29.85 in /  1010.7 hPa NE 3.5 mph /  5.6 km/h 3.5 mph /  5.6 km/h 84 % 0.04 in /  1.02 mm
18:45 41.5 °F /  5.3 °C 36.8 °F /  2.7 °C 29.88 in /  1011.7 hPa ENE 3.5 mph /  5.6 km/h 3.5 mph /  5.6 km/h 83 % 0.04 in /  1.02 mm
18:50 41.5 °F /  5.3 °C 36.8 °F /  2.7 °C 29.88 in /  1011.7 hPa NE 4.6 mph /  7.4 km/h 4.6 mph /  7.4 km/h 83 % 0.00 in /  0 mm
18:55 41.5 °F /  5.3 °C 36.8 °F /  2.7 °C 29.88 in /  1011.7 hPa NE 4.6 mph /  7.4 km/h 4.6 mph /  7.4 km/h 83 % 0.00 in /  0 mm
19:00 41.5 °F /  5.3 °C 36.8 °F /  2.7 °C 29.83 in /  1010 hPa NNE 5.8 mph /  9.3 km/h 5.8 mph /  9.3 km/h 83 % 0.00 in /  0 mm
19:05 41.5 °F /  5.3 °C 36.8 °F /  2.7 °C 29.83 in /  1010 hPa NNE 5.8 mph /  9.3 km/h 5.8 mph /  9.3 km/h 83 % 0.00 in /  0 mm
19:10 41.5 °F /  5.3 °C 36.8 °F /  2.7 °C 29.83 in /  1010 hPa NE 4.6 mph /  7.4 km/h 4.6 mph /  7.4 km/h 83 % 0.00 in /  0 mm
19:15 41.5 °F /  5.3 °C 36.8 °F /  2.7 °C 29.85 in /  1010.7 hPa ENE 5.8 mph /  9.3 km/h 5.8 mph /  9.3 km/h 83 % 0.00 in /  0 mm
19:20 41.5 °F /  5.3 °C 37.1 °F /  2.8 °C 29.85 in /  1010.7 hPa NE 4.6 mph /  7.4 km/h 4.6 mph /  7.4 km/h 84 % 0.00 in /  0 mm
19:25 41.5 °F /  5.3 °C 37.1 °F /  2.8 °C 29.85 in /  1010.7 hPa NNE 3.5 mph /  5.6 km/h 3.8 mph /  6.1 km/h 84 % 0.00 in /  0 mm
19:30 41.5 °F /  5.3 °C 37.1 °F /  2.8 °C 29.85 in /  1010.7 hPa NNE 3.5 mph /  5.6 km/h 3.5 mph /  5.6 km/h 84 % 0.00 in /  0 mm
19:35 41.5 °F /  5.3 °C 37.1 °F /  2.8 °C 29.85 in /  1010.7 hPa NNE 3.5 mph /  5.6 km/h 3.5 mph /  5.6 km/h 84 % 0.00 in /  0 mm
19:40 41.7 °F /  5.4 °C 37.2 °F /  2.9 °C 29.85 in /  1010.7 hPa NNE 2.9 mph /  4.7 km/h 2.9 mph /  4.7 km/h 84 % 0.17 in /  4.32 mm
19:45 41.7 °F /  5.4 °C 37.2 °F /  2.9 °C 29.85 in /  1010.7 hPa NNE 3.5 mph /  5.6 km/h 3.5 mph /  5.6 km/h 84 % 0.17 in /  4.32 mm
19:50 41.7 °F /  5.4 °C 37.2 °F /  2.9 °C 29.85 in /  1010.7 hPa NE 2.3 mph /  3.7 km/h 2.3 mph /  3.7 km/h 84 % 0.17 in /  4.32 mm
19:55 41.5 °F /  5.3 °C 37.1 °F /  2.8 °C 29.85 in /  1010.7 hPa NNE 3.5 mph /  5.6 km/h 3.5 mph /  5.6 km/h 84 % 0.17 in /  4.32 mm
20:00 41.5 °F /  5.3 °C 37.1 °F /  2.8 °C 29.85 in /  1010.7 hPa NNE 3.5 mph /  5.6 km/h 3.5 mph /  5.6 km/h 84 % 0.20 in /  5.08 mm
20:05 41.5 °F /  5.3 °C 37.1 °F /  2.8 °C 29.85 in /  1010.7 hPa NE 2.3 mph /  3.7 km/h 2.3 mph /  3.7 km/h 84 % 0.20 in /  5.08 mm
20:10 41.4 °F /  5.2 °C 36.9 °F /  2.7 °C 29.85 in /  1010.7 hPa NE 3.5 mph /  5.6 km/h 3.5 mph /  5.6 km/h 84 % 0.20 in /  5.08 mm
20:15 41.4 °F /  5.2 °C 36.9 °F /  2.7 °C 29.85 in /  1010.7 hPa NE 2.3 mph /  3.7 km/h 2.6 mph /  4.2 km/h 84 % 0.20 in /  5.08 mm
20:20 41.4 °F /  5.2 °C 36.9 °F /  2.7 °C 29.85 in /  1010.7 hPa Calm     84 % 0.20 in /  5.08 mm
20:25 41.2 °F /  5.1 °C 36.7 °F /  2.6 °C 29.85 in /  1010.7 hPa NNE 2.6 mph /  4.2 km/h   84 % 0.20 in /  5.08 mm
20:30 41.2 °F /  5.1 °C 36.7 °F /  2.6 °C 29.83 in /  1010 hPa ENE 2.3 mph /  3.7 km/h 2.3 mph /  3.7 km/h 84 % 0.20 in /  5.08 mm
20:35 41.0 °F /  5 °C 36.5 °F /  2.5 °C 29.83 in /  1010 hPa NNE 2.6 mph /  4.2 km/h 2.6 mph /  4.2 km/h 84 % 0.20 in /  5.08 mm
20:40 41.0 °F /  5 °C 36.5 °F /  2.5 °C 29.83 in /  1010 hPa NNE 2.3 mph /  3.7 km/h 2.3 mph /  3.7 km/h 84 % 0.03 in /  0.76 mm
20:45 41.0 °F /  5 °C 36.5 °F /  2.5 °C 29.83 in /  1010 hPa North 2.3 mph /  3.7 km/h 2.3 mph /  3.7 km/h 84 % 0.03 in /  0.76 mm
20:50 40.8 °F /  4.9 °C 36.4 °F /  2.4 °C 29.83 in /  1010 hPa NNE 3.5 mph /  5.6 km/h 3.5 mph /  5.6 km/h 84 % 0.03 in /  0.76 mm
20:55 40.6 °F /  4.8 °C 36.2 °F /  2.3 °C 29.83 in /  1010 hPa NNE 3.5 mph /  5.6 km/h 3.5 mph /  5.6 km/h 84 % 0.03 in /  0.76 mm
21:00 40.6 °F /  4.8 °C 36.2 °F /  2.3 °C 29.83 in /  1010 hPa NE 3.8 mph /  6.1 km/h 3.8 mph /  6.1 km/h 84 % 0.00 in /  0 mm
21:05 40.6 °F /  4.8 °C 36.2 °F /  2.3 °C 29.83 in /  1010 hPa NNE 4.6 mph /  7.4 km/h 4.6 mph /  7.4 km/h 84 % 0.00 in /  0 mm
21:10 40.6 °F /  4.8 °C 36.2 °F /  2.3 °C 29.83 in /  1010 hPa NE 3.5 mph /  5.6 km/h   84 % 0.00 in /  0 mm
21:15 40.6 °F /  4.8 °C 36.2 °F /  2.3 °C 29.83 in /  1010 hPa NE 3.5 mph /  5.6 km/h 3.5 mph /  5.6 km/h 84 % 0.00 in /  0 mm
21:20 40.5 °F /  4.7 °C 36.0 °F /  2.2 °C 29.83 in /  1010 hPa NNE 2.4 mph /  3.9 km/h 2.4 mph /  3.9 km/h 84 % 0.00 in /  0 mm
21:25 40.5 °F /  4.7 °C 36.0 °F /  2.2 °C 29.83 in /  1010 hPa NNE 2.3 mph /  3.7 km/h   84 % 0.00 in /  0 mm
21:30 39.2 °F /  4 °C 35.4 °F /  1.9 °C 29.77 in /  1008 hPa NNE 1.0 mph /  1.6 km/h 4.0 mph /  6.4 km/h 86 % 0.00 in /  0 mm
21:31 40.5 °F /  4.7 °C 36.0 °F /  2.2 °C 29.85 in /  1010.7 hPa NNE 2.3 mph /  3.7 km/h 2.3 mph /  3.7 km/h 84 % 0.00 in /  0 mm
21:36 40.5 °F /  4.7 °C 36.0 °F /  2.2 °C 29.85 in /  1010.7 hPa NNE 2.3 mph /  3.7 km/h 2.3 mph /  3.7 km/h 84 % 0.00 in /  0 mm
21:40 39.4 °F /  4.1 °C 35.5 °F /  1.9 °C 29.77 in /  1008 hPa NNE 2.0 mph /  3.2 km/h 5.0 mph /  8 km/h 86 % 0.00 in /  0 mm
21:41 40.5 °F /  4.7 °C 36.3 °F /  2.4 °C 29.85 in /  1010.7 hPa NNE 1.2 mph /  1.9 km/h 1.2 mph /  1.9 km/h 85 % 0.00 in /  0 mm
21:46 40.5 °F /  4.7 °C 36.3 °F /  2.4 °C 29.85 in /  1010.7 hPa NNE 2.3 mph /  3.7 km/h 2.3 mph /  3.7 km/h 85 % 0.00 in /  0 mm
21:50 39.9 °F /  4.4 °C 36.4 °F /  2.4 °C 29.77 in /  1008 hPa NE 2.0 mph /  3.2 km/h 4.0 mph /  6.4 km/h 87 % 0.00 in /  0 mm
21:51 40.5 °F /  4.7 °C 36.3 °F /  2.4 °C 29.85 in /  1010.7 hPa NE 4.6 mph /  7.4 km/h 4.6 mph /  7.4 km/h 85 % 0.00 in /  0 mm
21:56 40.5 °F /  4.7 °C 36.3 °F /  2.4 °C 29.85 in /  1010.7 hPa NNE 2.3 mph /  3.7 km/h   85 % 0.00 in /  0 mm
22:00 40.1 °F /  4.5 °C 36.5 °F /  2.5 °C 29.77 in /  1008 hPa NE 2.0 mph /  3.2 km/h 3.0 mph /  4.8 km/h 87 % 0.00 in /  0 mm
22:01 40.3 °F /  4.6 °C 36.1 °F /  2.3 °C 29.85 in /  1010.7 hPa NE 3.8 mph /  6.1 km/h 3.8 mph /  6.1 km/h 85 % 0.00 in /  0 mm
22:06 40.3 °F /  4.6 °C 36.1 °F /  2.3 °C 29.85 in /  1010.7 hPa NE 3.5 mph /  5.6 km/h 3.5 mph /  5.6 km/h 85 % 0.00 in /  0 mm
22:10 40.1 °F /  4.5 °C 36.5 °F /  2.5 °C 29.77 in /  1008 hPa NE 1.0 mph /  1.6 km/h 2.0 mph /  3.2 km/h 87 % 0.00 in /  0 mm
22:11 40.3 °F /  4.6 °C 36.1 °F /  2.3 °C 29.85 in /  1010.7 hPa NNE 2.3 mph /  3.7 km/h 2.3 mph /  3.7 km/h 85 % 0.00 in /  0 mm
22:16 40.3 °F /  4.6 °C 36.1 °F /  2.3 °C 29.85 in /  1010.7 hPa ENE 2.3 mph /  3.7 km/h 2.3 mph /  3.7 km/h 85 % 0.00 in /  0 mm
22:20 39.9 °F /  4.4 °C 36.4 °F /  2.4 °C 29.77 in /  1008 hPa NNE 3.0 mph /  4.8 km/h 3.0 mph /  4.8 km/h 87 % 0.00 in /  0 mm
22:21 40.3 °F /  4.6 °C 36.1 °F /  2.3 °C 29.85 in /  1010.7 hPa ENE 1.2 mph /  1.9 km/h   85 % 0.00 in /  0 mm
22:26 40.5 °F /  4.7 °C 36.3 °F /  2.4 °C 29.85 in /  1010.7 hPa NNE 1.4 mph /  2.3 km/h   85 % 0.17 in /  4.32 mm
22:30 40.1 °F /  4.5 °C 36.5 °F /  2.5 °C 29.77 in /  1008 hPa NNE 3.0 mph /  4.8 km/h 3.0 mph /  4.8 km/h 87 % 0.00 in /  0 mm
22:31 40.5 °F /  4.7 °C 36.3 °F /  2.4 °C 29.88 in /  1011.7 hPa NNE 1.2 mph /  1.9 km/h   85 % 0.17 in /  4.32 mm
22:36 40.5 °F /  4.7 °C 36.3 °F /  2.4 °C 29.88 in /  1011.7 hPa NE 1.2 mph /  1.9 km/h   85 % 0.21 in /  5.33 mm
22:40 40.3 °F /  4.6 °C 36.7 °F /  2.6 °C 29.74 in /  1007 hPa NE 3.0 mph /  4.8 km/h 5.0 mph /  8 km/h 87 % 0.00 in /  0 mm
22:41 40.5 °F /  4.7 °C 36.3 °F /  2.4 °C 29.88 in /  1011.7 hPa NNE 1.2 mph /  1.9 km/h   85 % 0.21 in /  5.33 mm
22:46 40.5 °F /  4.7 °C 36.3 °F /  2.4 °C 29.85 in /  1010.7 hPa Calm     85 % 0.21 in /  5.33 mm
22:50 40.1 °F /  4.5 °C 36.5 °F /  2.5 °C 29.74 in /  1007 hPa NNE 3.0 mph /  4.8 km/h 5.0 mph /  8 km/h 87 % 0.00 in /  0 mm
22:51 40.5 °F /  4.7 °C 36.3 °F /  2.4 °C 29.85 in /  1010.7 hPa North 1.2 mph /  1.9 km/h   85 % 0.21 in /  5.33 mm
22:56 40.3 °F /  4.6 °C 36.1 °F /  2.3 °C 29.85 in /  1010.7 hPa Calm     85 % 0.21 in /  5.33 mm
23:00 40.5 °F /  4.7 °C 36.9 °F /  2.7 °C 29.74 in /  1007 hPa NNE 3.0 mph /  4.8 km/h 6.0 mph /  9.7 km/h 87 % 0.00 in /  0 mm
23:01 40.3 °F /  4.6 °C 36.1 °F /  2.3 °C 29.85 in /  1010.7 hPa WNW 2.3 mph /  3.7 km/h 2.3 mph /  3.7 km/h 85 % 0.21 in /  5.33 mm
23:06 40.5 °F /  4.7 °C 36.3 °F /  2.4 °C 29.85 in /  1010.7 hPa Calm     85 % 0.21 in /  5.33 mm
23:10 40.6 °F /  4.8 °C 37.4 °F /  3 °C 29.74 in /  1007 hPa NNE 2.0 mph /  3.2 km/h 3.0 mph /  4.8 km/h 88 % 0.00 in /  0 mm
23:11 40.5 °F /  4.7 °C 36.3 °F /  2.4 °C 29.85 in /  1010.7 hPa Calm     85 % 0.21 in /  5.33 mm
23:16 40.5 °F /  4.7 °C 36.3 °F /  2.4 °C 29.88 in /  1011.7 hPa WSW 2.3 mph /  3.7 km/h 2.3 mph /  3.7 km/h 85 % 0.21 in /  5.33 mm
23:21 40.5 °F /  4.7 °C 36.3 °F /  2.4 °C 29.88 in /  1011.7 hPa SW 2.3 mph /  3.7 km/h   85 % 0.21 in /  5.33 mm
23:26 40.5 °F /  4.7 °C 36.3 °F /  2.4 °C 29.88 in /  1011.7 hPa Calm     85 % 0.04 in /  1.02 mm
23:30 40.6 °F /  4.8 °C 37.4 °F /  3 °C 29.77 in /  1008 hPa WSW 1.0 mph /  1.6 km/h 3.0 mph /  4.8 km/h 88 % 0.00 in /  0 mm
23:31 40.3 °F /  4.6 °C 36.1 °F /  2.3 °C 29.85 in /  1010.7 hPa NW 1.2 mph /  1.9 km/h 1.2 mph /  1.9 km/h 85 % 0.04 in /  1.02 mm
23:36 40.5 °F /  4.7 °C 36.3 °F /  2.4 °C 29.85 in /  1010.7 hPa NNE 3.5 mph /  5.6 km/h 3.5 mph /  5.6 km/h 85 % 0.00 in /  0 mm
23:40 40.6 °F /  4.8 °C 37.4 °F /  3 °C 29.74 in /  1007 hPa North 1.0 mph /  1.6 km/h 1.0 mph /  1.6 km/h 88 % 0.00 in /  0 mm
23:41 40.5 °F /  4.7 °C 36.3 °F /  2.4 °C 29.85 in /  1010.7 hPa ENE 3.5 mph /  5.6 km/h 3.5 mph /  5.6 km/h 85 % 0.00 in /  0 mm
23:46 40.3 °F /  4.6 °C 36.1 °F /  2.3 °C 29.83 in /  1010 hPa NNE 3.6 mph /  5.8 km/h 3.6 mph /  5.8 km/h 85 % 0.00 in /  0 mm
23:50 40.6 °F /  4.8 °C 37.4 °F /  3 °C 29.74 in /  1007 hPa NNE 3.0 mph /  4.8 km/h 4.0 mph /  6.4 km/h 88 % 0.00 in /  0 mm
23:51 40.3 °F /  4.6 °C 36.1 °F /  2.3 °C 29.83 in /  1010 hPa NNE 3.5 mph /  5.6 km/h 3.5 mph /  5.6 km/h 85 % 0.00 in /  0 mm
23:56 40.1 °F /  4.5 °C 36.0 °F /  2.2 °C 29.83 in /  1010 hPa NNE 2.3 mph /  3.7 km/h 2.3 mph /  3.7 km/h 85 % 0.00 in /  0 mm
Meteo Sesrovires
Elogis d' Weather Underground - 1.75 mb

Guio original per  Jim McMurry - jmcmurry@mwt.net Adaptat per a la plantilla per  Wim van der Kuil - Leuven-Template.eu

Trobareu la nostra informacio del temps tambe a:

Weather Underground

AWEKAS